sensor_id;sensor_type;location;lat;lon;timestamp;P1;durP1;ratioP1;P2;durP2;ratioP2
8556;SDS011;4316;53.840;10.762;2022-09-25T00:00:34;13.80;;;12.03;;
8556;SDS011;4316;53.840;10.762;2022-09-25T00:03:00;13.00;;;11.70;;
8556;SDS011;4316;53.840;10.762;2022-09-25T00:05:26;11.90;;;10.70;;
8556;SDS011;4316;53.840;10.762;2022-09-25T00:07:52;11.63;;;10.43;;
8556;SDS011;4316;53.840;10.762;2022-09-25T00:10:20;11.37;;;10.23;;
8556;SDS011;4316;53.840;10.762;2022-09-25T00:12:48;10.73;;;9.63;;
8556;SDS011;4316;53.840;10.762;2022-09-25T00:15:14;12.23;;;10.93;;
8556;SDS011;4316;53.840;10.762;2022-09-25T00:17:39;13.37;;;11.13;;
8556;SDS011;4316;53.840;10.762;2022-09-25T00:20:05;11.50;;;10.30;;
8556;SDS011;4316;53.840;10.762;2022-09-25T00:22:31;12.70;;;10.00;;
8556;SDS011;4316;53.840;10.762;2022-09-25T00:24:57;11.60;;;10.50;;
8556;SDS011;4316;53.840;10.762;2022-09-25T00:27:22;14.70;;;12.07;;
8556;SDS011;4316;53.840;10.762;2022-09-25T00:29:48;13.17;;;11.87;;
8556;SDS011;4316;53.840;10.762;2022-09-25T00:32:13;14.40;;;11.33;;
8556;SDS011;4316;53.840;10.762;2022-09-25T00:34:39;11.50;;;10.23;;
8556;SDS011;4316;53.840;10.762;2022-09-25T00:37:05;12.90;;;10.90;;
8556;SDS011;4316;53.840;10.762;2022-09-25T00:39:32;12.73;;;10.67;;
8556;SDS011;4316;53.840;10.762;2022-09-25T00:41:58;11.73;;;10.50;;
8556;SDS011;4316;53.840;10.762;2022-09-25T00:47:07;12.80;;;11.50;;
8556;SDS011;4316;53.840;10.762;2022-09-25T00:49:36;12.70;;;10.97;;
8556;SDS011;4316;53.840;10.762;2022-09-25T00:52:04;14.33;;;11.80;;
8556;SDS011;4316;53.840;10.762;2022-09-25T00:54:37;14.43;;;11.40;;
8556;SDS011;4316;53.840;10.762;2022-09-25T00:57:10;16.43;;;12.57;;
8556;SDS011;4316;53.840;10.762;2022-09-25T00:59:42;15.63;;;12.57;;
8556;SDS011;4316;53.840;10.762;2022-09-25T01:02:12;16.27;;;12.50;;
8556;SDS011;4316;53.840;10.762;2022-09-25T01:04:43;16.13;;;12.43;;
8556;SDS011;4316;53.840;10.762;2022-09-25T01:07:11;15.63;;;11.47;;
8556;SDS011;4316;53.840;10.762;2022-09-25T01:09:37;16.43;;;11.83;;
8556;SDS011;4316;53.840;10.762;2022-09-25T01:12:02;11.87;;;10.67;;
8556;SDS011;4316;53.840;10.762;2022-09-25T01:14:29;12.73;;;10.87;;
8556;SDS011;4316;53.840;10.762;2022-09-25T01:22:35;16.40;;;14.30;;
8556;SDS011;4316;53.840;10.762;2022-09-25T01:30:40;17.83;;;13.13;;
8556;SDS011;4316;53.840;10.762;2022-09-25T01:33:13;18.47;;;12.67;;
8556;SDS011;4316;53.840;10.762;2022-09-25T01:35:47;14.87;;;12.80;;
8556;SDS011;4316;53.840;10.762;2022-09-25T01:38:41;23.80;;;13.57;;
8556;SDS011;4316;53.840;10.762;2022-09-25T01:43:57;19.57;;;14.77;;
8556;SDS011;4316;53.840;10.762;2022-09-25T01:46:27;15.50;;;12.73;;
8556;SDS011;4316;53.840;10.762;2022-09-25T01:48:58;20.67;;;16.10;;
8556;SDS011;4316;53.840;10.762;2022-09-25T01:51:37;16.27;;;13.47;;
8556;SDS011;4316;53.840;10.762;2022-09-25T01:54:10;16.57;;;14.17;;
8556;SDS011;4316;53.840;10.762;2022-09-25T01:57:29;19.07;;;16.10;;
8556;SDS011;4316;53.840;10.762;2022-09-25T02:02:15;21.93;;;15.73;;
8556;SDS011;4316;53.840;10.762;2022-09-25T02:04:46;20.03;;;15.13;;
8556;SDS011;4316;53.840;10.762;2022-09-25T02:07:21;17.93;;;14.10;;
8556;SDS011;4316;53.840;10.762;2022-09-25T02:09:53;18.87;;;14.53;;
8556;SDS011;4316;53.840;10.762;2022-09-25T02:12:27;16.00;;;12.60;;
8556;SDS011;4316;53.840;10.762;2022-09-25T02:15:19;18.77;;;13.90;;
8556;SDS011;4316;53.840;10.762;2022-09-25T02:17:58;16.63;;;13.40;;
8556;SDS011;4316;53.840;10.762;2022-09-25T02:21:27;18.73;;;13.03;;
8556;SDS011;4316;53.840;10.762;2022-09-25T02:23:43;16.40;;;14.13;;
8556;SDS011;4316;53.840;10.762;2022-09-25T02:26:27;19.53;;;13.83;;
8556;SDS011;4316;53.840;10.762;2022-09-25T02:28:54;19.40;;;14.77;;
8556;SDS011;4316;53.840;10.762;2022-09-25T02:31:26;20.00;;;14.43;;
8556;SDS011;4316;53.840;10.762;2022-09-25T02:33:59;17.73;;;13.07;;
8556;SDS011;4316;53.840;10.762;2022-09-25T02:36:25;20.00;;;14.13;;
8556;SDS011;4316;53.840;10.762;2022-09-25T02:38:51;22.10;;;14.00;;
8556;SDS011;4316;53.840;10.762;2022-09-25T02:52:40;17.77;;;12.37;;
8556;SDS011;4316;53.840;10.762;2022-09-25T02:55:15;16.30;;;12.47;;
8556;SDS011;4316;53.840;10.762;2022-09-25T02:57:53;15.03;;;12.67;;
8556;SDS011;4316;53.840;10.762;2022-09-25T03:00:22;17.70;;;12.90;;
8556;SDS011;4316;53.840;10.762;2022-09-25T03:02:52;16.63;;;13.43;;
8556;SDS011;4316;53.840;10.762;2022-09-25T03:05:20;19.47;;;14.40;;
8556;SDS011;4316;53.840;10.762;2022-09-25T03:07:47;16.37;;;13.60;;
8556;SDS011;4316;53.840;10.762;2022-09-25T03:10:32;20.17;;;14.90;;
8556;SDS011;4316;53.840;10.762;2022-09-25T03:13:12;20.23;;;14.60;;
8556;SDS011;4316;53.840;10.762;2022-09-25T03:15:47;20.93;;;15.20;;
8556;SDS011;4316;53.840;10.762;2022-09-25T03:18:15;19.13;;;14.13;;
8556;SDS011;4316;53.840;10.762;2022-09-25T03:20:41;17.70;;;13.60;;
8556;SDS011;4316;53.840;10.762;2022-09-25T03:23:07;18.00;;;13.97;;
8556;SDS011;4316;53.840;10.762;2022-09-25T03:25:33;18.80;;;14.43;;
8556;SDS011;4316;53.840;10.762;2022-09-25T03:27:58;16.93;;;13.70;;
8556;SDS011;4316;53.840;10.762;2022-09-25T03:30:24;17.67;;;14.50;;
8556;SDS011;4316;53.840;10.762;2022-09-25T03:32:49;17.83;;;13.70;;
8556;SDS011;4316;53.840;10.762;2022-09-25T03:35:15;19.10;;;13.93;;
8556;SDS011;4316;53.840;10.762;2022-09-25T03:37:40;15.80;;;12.73;;
8556;SDS011;4316;53.840;10.762;2022-09-25T03:40:06;14.90;;;13.13;;
8556;SDS011;4316;53.840;10.762;2022-09-25T03:42:32;18.03;;;13.67;;
8556;SDS011;4316;53.840;10.762;2022-09-25T03:44:58;20.27;;;13.93;;
8556;SDS011;4316;53.840;10.762;2022-09-25T03:47:23;17.10;;;12.63;;
8556;SDS011;4316;53.840;10.762;2022-09-25T03:49:49;15.13;;;13.20;;
8556;SDS011;4316;53.840;10.762;2022-09-25T03:52:14;13.63;;;11.70;;
8556;SDS011;4316;53.840;10.762;2022-09-25T03:54:40;16.17;;;13.43;;
8556;SDS011;4316;53.840;10.762;2022-09-25T03:57:05;19.07;;;14.17;;
8556;SDS011;4316;53.840;10.762;2022-09-25T03:59:31;20.33;;;13.70;;
8556;SDS011;4316;53.840;10.762;2022-09-25T04:01:57;16.57;;;13.63;;
8556;SDS011;4316;53.840;10.762;2022-09-25T04:04:22;17.23;;;13.17;;
8556;SDS011;4316;53.840;10.762;2022-09-25T04:06:48;21.27;;;14.73;;
8556;SDS011;4316;53.840;10.762;2022-09-25T04:09:13;18.20;;;13.73;;
8556;SDS011;4316;53.840;10.762;2022-09-25T04:11:39;18.37;;;13.43;;
8556;SDS011;4316;53.840;10.762;2022-09-25T04:14:05;18.63;;;13.57;;
8556;SDS011;4316;53.840;10.762;2022-09-25T04:16:30;16.80;;;13.07;;
8556;SDS011;4316;53.840;10.762;2022-09-25T04:18:56;18.97;;;14.53;;
8556;SDS011;4316;53.840;10.762;2022-09-25T04:21:22;20.20;;;14.87;;
8556;SDS011;4316;53.840;10.762;2022-09-25T04:23:48;16.63;;;13.50;;
8556;SDS011;4316;53.840;10.762;2022-09-25T04:26:32;18.47;;;13.87;;
8556;SDS011;4316;53.840;10.762;2022-09-25T04:28:58;17.83;;;13.27;;
8556;SDS011;4316;53.840;10.762;2022-09-25T04:31:28;15.90;;;12.53;;
8556;SDS011;4316;53.840;10.762;2022-09-25T04:33:55;14.80;;;13.27;;
8556;SDS011;4316;53.840;10.762;2022-09-25T04:36:20;20.43;;;15.00;;
8556;SDS011;4316;53.840;10.762;2022-09-25T04:38:46;18.90;;;14.97;;
8556;SDS011;4316;53.840;10.762;2022-09-25T04:41:12;21.10;;;14.97;;
8556;SDS011;4316;53.840;10.762;2022-09-25T04:43:40;23.00;;;16.57;;
8556;SDS011;4316;53.840;10.762;2022-09-25T04:46:07;19.27;;;15.67;;
8556;SDS011;4316;53.840;10.762;2022-09-25T04:48:34;23.77;;;14.97;;
8556;SDS011;4316;53.840;10.762;2022-09-25T04:51:01;20.13;;;14.53;;
8556;SDS011;4316;53.840;10.762;2022-09-25T04:53:30;21.70;;;16.00;;
8556;SDS011;4316;53.840;10.762;2022-09-25T04:56:03;20.73;;;14.93;;
8556;SDS011;4316;53.840;10.762;2022-09-25T04:58:31;18.43;;;14.67;;
8556;SDS011;4316;53.840;10.762;2022-09-25T05:01:04;22.60;;;15.20;;
8556;SDS011;4316;53.840;10.762;2022-09-25T05:03:33;19.83;;;15.17;;
8556;SDS011;4316;53.840;10.762;2022-09-25T05:05:58;18.77;;;14.50;;
8556;SDS011;4316;53.840;10.762;2022-09-25T05:08:24;16.33;;;14.07;;
8556;SDS011;4316;53.840;10.762;2022-09-25T05:10:51;16.20;;;13.83;;
8556;SDS011;4316;53.840;10.762;2022-09-25T05:13:16;20.93;;;14.97;;
8556;SDS011;4316;53.840;10.762;2022-09-25T05:15:42;22.03;;;15.90;;
8556;SDS011;4316;53.840;10.762;2022-09-25T05:20:39;18.33;;;14.97;;
8556;SDS011;4316;53.840;10.762;2022-09-25T05:23:04;22.30;;;16.40;;
8556;SDS011;4316;53.840;10.762;2022-09-25T05:25:30;22.77;;;15.87;;
8556;SDS011;4316;53.840;10.762;2022-09-25T05:27:56;19.83;;;15.77;;
8556;SDS011;4316;53.840;10.762;2022-09-25T05:30:28;20.27;;;14.77;;
8556;SDS011;4316;53.840;10.762;2022-09-25T05:32:55;18.87;;;14.00;;
8556;SDS011;4316;53.840;10.762;2022-09-25T05:35:24;18.77;;;14.53;;
8556;SDS011;4316;53.840;10.762;2022-09-25T05:37:52;20.20;;;13.33;;
8556;SDS011;4316;53.840;10.762;2022-09-25T05:40:18;19.83;;;14.87;;
8556;SDS011;4316;53.840;10.762;2022-09-25T05:42:45;21.87;;;15.07;;
8556;SDS011;4316;53.840;10.762;2022-09-25T05:45:16;16.83;;;13.77;;
8556;SDS011;4316;53.840;10.762;2022-09-25T05:47:42;17.63;;;14.07;;
8556;SDS011;4316;53.840;10.762;2022-09-25T05:50:09;18.77;;;14.50;;
8556;SDS011;4316;53.840;10.762;2022-09-25T05:52:37;24.40;;;13.77;;
8556;SDS011;4316;53.840;10.762;2022-09-25T05:55:03;18.70;;;14.33;;
8556;SDS011;4316;53.840;10.762;2022-09-25T05:57:30;18.83;;;13.63;;
8556;SDS011;4316;53.840;10.762;2022-09-25T05:59:56;19.67;;;13.90;;
8556;SDS011;4316;53.840;10.762;2022-09-25T06:02:23;21.20;;;14.37;;
8556;SDS011;4316;53.840;10.762;2022-09-25T06:04:49;21.17;;;13.73;;
8556;SDS011;4316;53.840;10.762;2022-09-25T06:07:14;21.60;;;14.50;;
8556;SDS011;4316;53.840;10.762;2022-09-25T06:09:40;17.97;;;13.60;;
8556;SDS011;4316;53.840;10.762;2022-09-25T06:12:05;24.47;;;15.57;;
8556;SDS011;4316;53.840;10.762;2022-09-25T06:14:31;21.30;;;15.47;;
8556;SDS011;4316;53.840;10.762;2022-09-25T06:16:59;18.50;;;14.27;;
8556;SDS011;4316;53.840;10.762;2022-09-25T06:19:25;19.87;;;15.27;;
8556;SDS011;4316;53.840;10.762;2022-09-25T06:21:53;23.37;;;16.30;;
8556;SDS011;4316;53.840;10.762;2022-09-25T06:24:19;21.37;;;16.30;;
8556;SDS011;4316;53.840;10.762;2022-09-25T06:26:45;20.27;;;15.07;;
8556;SDS011;4316;53.840;10.762;2022-09-25T06:29:11;19.73;;;15.77;;
8556;SDS011;4316;53.840;10.762;2022-09-25T06:31:36;27.17;;;17.80;;
8556;SDS011;4316;53.840;10.762;2022-09-25T06:34:03;24.50;;;17.10;;
8556;SDS011;4316;53.840;10.762;2022-09-25T06:36:29;21.13;;;15.57;;
8556;SDS011;4316;53.840;10.762;2022-09-25T06:38:56;22.63;;;17.00;;
8556;SDS011;4316;53.840;10.762;2022-09-25T06:41:22;17.53;;;15.00;;
8556;SDS011;4316;53.840;10.762;2022-09-25T06:43:51;19.57;;;15.53;;
8556;SDS011;4316;53.840;10.762;2022-09-25T06:46:17;19.60;;;15.10;;
8556;SDS011;4316;53.840;10.762;2022-09-25T06:48:49;17.33;;;14.57;;
8556;SDS011;4316;53.840;10.762;2022-09-25T06:51:18;20.30;;;14.90;;
8556;SDS011;4316;53.840;10.762;2022-09-25T06:53:51;19.57;;;15.40;;
8556;SDS011;4316;53.840;10.762;2022-09-25T06:56:18;22.63;;;14.60;;
8556;SDS011;4316;53.840;10.762;2022-09-25T06:58:44;24.60;;;16.73;;
8556;SDS011;4316;53.840;10.762;2022-09-25T07:01:09;19.70;;;14.80;;
8556;SDS011;4316;53.840;10.762;2022-09-25T07:03:36;19.27;;;15.10;;
8556;SDS011;4316;53.840;10.762;2022-09-25T07:06:21;17.40;;;14.30;;
8556;SDS011;4316;53.840;10.762;2022-09-25T07:08:50;22.50;;;14.83;;
8556;SDS011;4316;53.840;10.762;2022-09-25T07:11:17;23.77;;;14.93;;
8556;SDS011;4316;53.840;10.762;2022-09-25T07:13:47;20.30;;;15.00;;
8556;SDS011;4316;53.840;10.762;2022-09-25T07:16:19;33.10;;;14.07;;
8556;SDS011;4316;53.840;10.762;2022-09-25T07:18:46;22.57;;;14.00;;
8556;SDS011;4316;53.840;10.762;2022-09-25T07:23:37;17.43;;;12.67;;
8556;SDS011;4316;53.840;10.762;2022-09-25T07:26:13;15.73;;;12.37;;
8556;SDS011;4316;53.840;10.762;2022-09-25T07:28:47;13.50;;;12.00;;
8556;SDS011;4316;53.840;10.762;2022-09-25T07:31:18;16.03;;;11.80;;
8556;SDS011;4316;53.840;10.762;2022-09-25T07:33:45;11.53;;;10.20;;
8556;SDS011;4316;53.840;10.762;2022-09-25T07:36:11;11.77;;;10.00;;
8556;SDS011;4316;53.840;10.762;2022-09-25T07:38:38;12.30;;;9.50;;
8556;SDS011;4316;53.840;10.762;2022-09-25T07:41:04;11.83;;;9.47;;
8556;SDS011;4316;53.840;10.762;2022-09-25T07:43:33;12.73;;;10.07;;
8556;SDS011;4316;53.840;10.762;2022-09-25T07:45:59;13.63;;;11.37;;
8556;SDS011;4316;53.840;10.762;2022-09-25T07:48:25;13.17;;;11.70;;
8556;SDS011;4316;53.840;10.762;2022-09-25T07:50:51;17.80;;;10.80;;
8556;SDS011;4316;53.840;10.762;2022-09-25T07:53:19;12.67;;;11.13;;
8556;SDS011;4316;53.840;10.762;2022-09-25T07:55:45;13.57;;;10.70;;
8556;SDS011;4316;53.840;10.762;2022-09-25T07:58:11;14.87;;;12.00;;
8556;SDS011;4316;53.840;10.762;2022-09-25T08:00:41;13.60;;;10.87;;
8556;SDS011;4316;53.840;10.762;2022-09-25T08:03:13;12.63;;;10.50;;
8556;SDS011;4316;53.840;10.762;2022-09-25T08:05:39;12.27;;;10.23;;
8556;SDS011;4316;53.840;10.762;2022-09-25T08:08:04;11.23;;;10.03;;
8556;SDS011;4316;53.840;10.762;2022-09-25T08:10:30;11.67;;;10.37;;
8556;SDS011;4316;53.840;10.762;2022-09-25T08:12:56;12.37;;;10.93;;
8556;SDS011;4316;53.840;10.762;2022-09-25T08:15:22;13.23;;;10.97;;
8556;SDS011;4316;53.840;10.762;2022-09-25T08:17:47;14.67;;;11.60;;
8556;SDS011;4316;53.840;10.762;2022-09-25T08:20:13;11.70;;;10.20;;
8556;SDS011;4316;53.840;10.762;2022-09-25T08:22:39;14.03;;;10.73;;
8556;SDS011;4316;53.840;10.762;2022-09-25T08:25:04;12.53;;;10.63;;
8556;SDS011;4316;53.840;10.762;2022-09-25T08:27:30;13.87;;;12.30;;
8556;SDS011;4316;53.840;10.762;2022-09-25T08:29:56;41.90;;;28.13;;
8556;SDS011;4316;53.840;10.762;2022-09-25T08:32:22;32.30;;;15.60;;
8556;SDS011;4316;53.840;10.762;2022-09-25T08:34:48;73.03;;;43.70;;
8556;SDS011;4316;53.840;10.762;2022-09-25T08:37:13;45.20;;;33.97;;
8556;SDS011;4316;53.840;10.762;2022-09-25T08:39:41;14.57;;;11.17;;
8556;SDS011;4316;53.840;10.762;2022-09-25T08:42:08;27.50;;;23.47;;
8556;SDS011;4316;53.840;10.762;2022-09-25T08:44:59;13.17;;;10.63;;
8556;SDS011;4316;53.840;10.762;2022-09-25T08:47:49;12.97;;;11.00;;
8556;SDS011;4316;53.840;10.762;2022-09-25T08:50:35;11.10;;;9.90;;
8556;SDS011;4316;53.840;10.762;2022-09-25T08:53:05;20.93;;;15.47;;
8556;SDS011;4316;53.840;10.762;2022-09-25T08:55:41;13.97;;;12.13;;
8556;SDS011;4316;53.840;10.762;2022-09-25T08:58:26;12.40;;;10.80;;
8556;SDS011;4316;53.840;10.762;2022-09-25T09:01:04;13.00;;;10.57;;
8556;SDS011;4316;53.840;10.762;2022-09-25T09:03:32;11.70;;;10.30;;
8556;SDS011;4316;53.840;10.762;2022-09-25T09:06:04;9.77;;;8.87;;
8556;SDS011;4316;53.840;10.762;2022-09-25T09:08:32;10.37;;;9.30;;
8556;SDS011;4316;53.840;10.762;2022-09-25T09:11:02;11.47;;;9.83;;
8556;SDS011;4316;53.840;10.762;2022-09-25T09:16:22;9.60;;;8.60;;
8556;SDS011;4316;53.840;10.762;2022-09-25T09:18:57;9.80;;;8.83;;
8556;SDS011;4316;53.840;10.762;2022-09-25T09:21:27;10.37;;;9.23;;
8556;SDS011;4316;53.840;10.762;2022-09-25T09:35:03;10.60;;;9.30;;
8556;SDS011;4316;53.840;10.762;2022-09-25T09:40:24;10.47;;;9.37;;
8556;SDS011;4316;53.840;10.762;2022-09-25T09:46:19;9.20;;;8.40;;
8556;SDS011;4316;53.840;10.762;2022-09-25T09:49:03;10.80;;;8.20;;
8556;SDS011;4316;53.840;10.762;2022-09-25T09:54:32;9.07;;;8.17;;
8556;SDS011;4316;53.840;10.762;2022-09-25T09:57:04;10.60;;;8.53;;
8556;SDS011;4316;53.840;10.762;2022-09-25T09:59:45;9.50;;;8.13;;
8556;SDS011;4316;53.840;10.762;2022-09-25T10:02:29;11.00;;;8.60;;
8556;SDS011;4316;53.840;10.762;2022-09-25T10:05:00;10.27;;;8.60;;
8556;SDS011;4316;53.840;10.762;2022-09-25T10:07:29;12.00;;;7.43;;
8556;SDS011;4316;53.840;10.762;2022-09-25T10:09:59;7.63;;;6.93;;
8556;SDS011;4316;53.840;10.762;2022-09-25T10:12:30;8.27;;;7.47;;
8556;SDS011;4316;53.840;10.762;2022-09-25T10:14:58;8.43;;;6.90;;
8556;SDS011;4316;53.840;10.762;2022-09-25T10:17:28;7.37;;;6.37;;
8556;SDS011;4316;53.840;10.762;2022-09-25T10:19:58;7.03;;;6.43;;
8556;SDS011;4316;53.840;10.762;2022-09-25T10:22:33;7.47;;;6.77;;
8556;SDS011;4316;53.840;10.762;2022-09-25T10:25:03;7.83;;;6.60;;
8556;SDS011;4316;53.840;10.762;2022-09-25T10:32:45;8.23;;;7.43;;
8556;SDS011;4316;53.840;10.762;2022-09-25T10:38:02;11.57;;;9.77;;
8556;SDS011;4316;53.840;10.762;2022-09-25T10:40:36;10.30;;;9.30;;
8556;SDS011;4316;53.840;10.762;2022-09-25T10:43:04;12.07;;;8.90;;
8556;SDS011;4316;53.840;10.762;2022-09-25T10:45:33;10.90;;;8.97;;
8556;SDS011;4316;53.840;10.762;2022-09-25T10:48:00;14.47;;;9.40;;
8556;SDS011;4316;53.840;10.762;2022-09-25T10:50:46;11.03;;;9.60;;
8556;SDS011;4316;53.840;10.762;2022-09-25T10:53:31;14.00;;;8.70;;
8556;SDS011;4316;53.840;10.762;2022-09-25T10:56:00;12.17;;;8.90;;
8556;SDS011;4316;53.840;10.762;2022-09-25T10:58:37;11.17;;;8.47;;
8556;SDS011;4316;53.840;10.762;2022-09-25T11:01:10;9.70;;;8.70;;
8556;SDS011;4316;53.840;10.762;2022-09-25T11:06:20;10.80;;;8.80;;
8556;SDS011;4316;53.840;10.762;2022-09-25T11:08:53;9.70;;;7.97;;
8556;SDS011;4316;53.840;10.762;2022-09-25T11:11:27;13.50;;;8.53;;
8556;SDS011;4316;53.840;10.762;2022-09-25T11:13:54;9.00;;;8.10;;
8556;SDS011;4316;53.840;10.762;2022-09-25T11:19:23;9.63;;;7.73;;
8556;SDS011;4316;53.840;10.762;2022-09-25T11:22:01;8.60;;;7.50;;
8556;SDS011;4316;53.840;10.762;2022-09-25T11:24:39;13.03;;;9.30;;
8556;SDS011;4316;53.840;10.762;2022-09-25T11:27:25;9.63;;;8.10;;
8556;SDS011;4316;53.840;10.762;2022-09-25T11:30:01;9.70;;;8.63;;
8556;SDS011;4316;53.840;10.762;2022-09-25T11:35:19;10.13;;;8.23;;
8556;SDS011;4316;53.840;10.762;2022-09-25T11:38:01;10.30;;;8.10;;
8556;SDS011;4316;53.840;10.762;2022-09-25T11:40:56;10.00;;;8.30;;
8556;SDS011;4316;53.840;10.762;2022-09-25T11:43:50;10.67;;;7.63;;
8556;SDS011;4316;53.840;10.762;2022-09-25T11:52:00;9.73;;;8.50;;
8556;SDS011;4316;53.840;10.762;2022-09-25T11:57:51;12.57;;;9.80;;
8556;SDS011;4316;53.840;10.762;2022-09-25T12:03:57;15.67;;;10.47;;
8556;SDS011;4316;53.840;10.762;2022-09-25T12:09:21;11.60;;;10.40;;
8556;SDS011;4316;53.840;10.762;2022-09-25T12:11:58;15.40;;;12.70;;
8556;SDS011;4316;53.840;10.762;2022-09-25T12:31:32;18.37;;;11.03;;
8556;SDS011;4316;53.840;10.762;2022-09-25T12:37:29;11.20;;;8.60;;
8556;SDS011;4316;53.840;10.762;2022-09-25T12:40:15;8.90;;;8.00;;
8556;SDS011;4316;53.840;10.762;2022-09-25T12:43:01;13.67;;;8.00;;
8556;SDS011;4316;53.840;10.762;2022-09-25T12:45:38;14.77;;;7.60;;
8556;SDS011;4316;53.840;10.762;2022-09-25T12:48:13;12.77;;;7.87;;
8556;SDS011;4316;53.840;10.762;2022-09-25T12:50:49;9.53;;;7.17;;
8556;SDS011;4316;53.840;10.762;2022-09-25T12:53:38;13.30;;;7.37;;
8556;SDS011;4316;53.840;10.762;2022-09-25T12:56:19;10.73;;;7.33;;
8556;SDS011;4316;53.840;10.762;2022-09-25T12:58:56;10.20;;;7.43;;
8556;SDS011;4316;53.840;10.762;2022-09-25T13:01:30;9.37;;;6.20;;
8556;SDS011;4316;53.840;10.762;2022-09-25T13:07:06;14.43;;;7.63;;
8556;SDS011;4316;53.840;10.762;2022-09-25T13:09:49;17.33;;;7.23;;
8556;SDS011;4316;53.840;10.762;2022-09-25T13:12:32;10.60;;;7.03;;
8556;SDS011;4316;53.840;10.762;2022-09-25T13:15:08;13.83;;;7.43;;
8556;SDS011;4316;53.840;10.762;2022-09-25T13:17:38;12.47;;;7.73;;
8556;SDS011;4316;53.840;10.762;2022-09-25T13:21:20;13.50;;;8.00;;
8556;SDS011;4316;53.840;10.762;2022-09-25T13:23:07;13.77;;;9.30;;
8556;SDS011;4316;53.840;10.762;2022-09-25T13:25:48;13.37;;;8.43;;
8556;SDS011;4316;53.840;10.762;2022-09-25T13:31:28;11.30;;;8.40;;
8556;SDS011;4316;53.840;10.762;2022-09-25T13:38:50;13.67;;;9.67;;
8556;SDS011;4316;53.840;10.762;2022-09-25T13:42:02;12.53;;;8.90;;
8556;SDS011;4316;53.840;10.762;2022-09-25T13:47:31;10.47;;;8.33;;
8556;SDS011;4316;53.840;10.762;2022-09-25T13:58:19;12.77;;;10.07;;
8556;SDS011;4316;53.840;10.762;2022-09-25T14:05:56;15.73;;;9.60;;
8556;SDS011;4316;53.840;10.762;2022-09-25T14:08:23;16.53;;;10.67;;
8556;SDS011;4316;53.840;10.762;2022-09-25T14:10:52;15.93;;;10.40;;
8556;SDS011;4316;53.840;10.762;2022-09-25T14:13:20;15.17;;;9.63;;
8556;SDS011;4316;53.840;10.762;2022-09-25T14:15:47;15.07;;;10.23;;
8556;SDS011;4316;53.840;10.762;2022-09-25T14:18:18;20.07;;;11.17;;
8556;SDS011;4316;53.840;10.762;2022-09-25T14:20:51;16.70;;;9.47;;
8556;SDS011;4316;53.840;10.762;2022-09-25T14:23:23;12.40;;;8.30;;
8556;SDS011;4316;53.840;10.762;2022-09-25T14:25:56;13.00;;;8.57;;
8556;SDS011;4316;53.840;10.762;2022-09-25T14:28:34;11.20;;;7.93;;
8556;SDS011;4316;53.840;10.762;2022-09-25T14:31:18;9.13;;;8.23;;
8556;SDS011;4316;53.840;10.762;2022-09-25T14:48:23;9.70;;;5.80;;
8556;SDS011;4316;53.840;10.762;2022-09-25T14:50:56;8.53;;;5.80;;
8556;SDS011;4316;53.840;10.762;2022-09-25T14:53:28;10.23;;;5.83;;
8556;SDS011;4316;53.840;10.762;2022-09-25T14:55:57;10.37;;;5.77;;
8556;SDS011;4316;53.840;10.762;2022-09-25T14:58:27;9.67;;;5.30;;
8556;SDS011;4316;53.840;10.762;2022-09-25T15:00:58;11.10;;;6.33;;
8556;SDS011;4316;53.840;10.762;2022-09-25T15:03:31;9.40;;;5.80;;
8556;SDS011;4316;53.840;10.762;2022-09-25T15:06:03;7.67;;;6.67;;
8556;SDS011;4316;53.840;10.762;2022-09-25T15:13:39;14.67;;;7.33;;
8556;SDS011;4316;53.840;10.762;2022-09-25T15:16:05;10.63;;;7.03;;
8556;SDS011;4316;53.840;10.762;2022-09-25T15:18:56;8.87;;;6.83;;
8556;SDS011;4316;53.840;10.762;2022-09-25T15:24:00;10.33;;;5.60;;
8556;SDS011;4316;53.840;10.762;2022-09-25T15:26:31;10.87;;;6.20;;
8556;SDS011;4316;53.840;10.762;2022-09-25T15:29:03;10.30;;;6.07;;
8556;SDS011;4316;53.840;10.762;2022-09-25T15:31:41;9.30;;;6.37;;
8556;SDS011;4316;53.840;10.762;2022-09-25T15:34:11;20.80;;;13.60;;
8556;SDS011;4316;53.840;10.762;2022-09-25T15:36:38;19.43;;;12.67;;
8556;SDS011;4316;53.840;10.762;2022-09-25T15:39:14;22.67;;;14.10;;
8556;SDS011;4316;53.840;10.762;2022-09-25T15:41:42;27.87;;;19.80;;
8556;SDS011;4316;53.840;10.762;2022-09-25T15:44:12;10.03;;;7.90;;
8556;SDS011;4316;53.840;10.762;2022-09-25T15:46:47;11.30;;;8.30;;
8556;SDS011;4316;53.840;10.762;2022-09-25T15:51:51;54.20;;;37.33;;
8556;SDS011;4316;53.840;10.762;2022-09-25T15:57:02;9.87;;;7.53;;
8556;SDS011;4316;53.840;10.762;2022-09-25T15:59:37;8.13;;;6.47;;
8556;SDS011;4316;53.840;10.762;2022-09-25T16:02:30;10.10;;;6.93;;
8556;SDS011;4316;53.840;10.762;2022-09-25T16:05:42;11.93;;;8.27;;
8556;SDS011;4316;53.840;10.762;2022-09-25T16:10:48;7.30;;;6.50;;
8556;SDS011;4316;53.840;10.762;2022-09-25T16:13:18;9.80;;;7.60;;
8556;SDS011;4316;53.840;10.762;2022-09-25T16:15:48;10.47;;;7.03;;
8556;SDS011;4316;53.840;10.762;2022-09-25T16:20:53;7.10;;;4.97;;
8556;SDS011;4316;53.840;10.762;2022-09-25T16:23:42;16.33;;;5.37;;
8556;SDS011;4316;53.840;10.762;2022-09-25T16:26:18;8.93;;;5.00;;
8556;SDS011;4316;53.840;10.762;2022-09-25T16:29:06;6.83;;;4.60;;
8556;SDS011;4316;53.840;10.762;2022-09-25T16:31:46;4.23;;;3.47;;
8556;SDS011;4316;53.840;10.762;2022-09-25T16:34:23;4.53;;;3.50;;
8556;SDS011;4316;53.840;10.762;2022-09-25T16:36:54;6.30;;;3.57;;
8556;SDS011;4316;53.840;10.762;2022-09-25T16:39:23;6.90;;;4.30;;
8556;SDS011;4316;53.840;10.762;2022-09-25T16:41:51;9.17;;;6.03;;
8556;SDS011;4316;53.840;10.762;2022-09-25T16:49:20;6.57;;;5.00;;
8556;SDS011;4316;53.840;10.762;2022-09-25T16:51:46;5.57;;;3.90;;
8556;SDS011;4316;53.840;10.762;2022-09-25T16:54:13;6.07;;;4.20;;
8556;SDS011;4316;53.840;10.762;2022-09-25T16:56:42;5.40;;;4.20;;
8556;SDS011;4316;53.840;10.762;2022-09-25T16:59:14;6.63;;;4.50;;
8556;SDS011;4316;53.840;10.762;2022-09-25T17:01:41;5.97;;;4.43;;
8556;SDS011;4316;53.840;10.762;2022-09-25T17:04:07;8.03;;;4.20;;
8556;SDS011;4316;53.840;10.762;2022-09-25T17:06:34;5.00;;;3.80;;
8556;SDS011;4316;53.840;10.762;2022-09-25T17:09:07;6.03;;;3.17;;
8556;SDS011;4316;53.840;10.762;2022-09-25T17:11:36;5.53;;;3.93;;
8556;SDS011;4316;53.840;10.762;2022-09-25T17:14:03;5.53;;;3.77;;
8556;SDS011;4316;53.840;10.762;2022-09-25T17:16:31;6.17;;;4.30;;
8556;SDS011;4316;53.840;10.762;2022-09-25T17:18:57;5.97;;;4.40;;
8556;SDS011;4316;53.840;10.762;2022-09-25T17:21:23;6.80;;;4.73;;
8556;SDS011;4316;53.840;10.762;2022-09-25T17:23:49;6.80;;;4.90;;
8556;SDS011;4316;53.840;10.762;2022-09-25T17:26:22;7.73;;;5.17;;
8556;SDS011;4316;53.840;10.762;2022-09-25T17:28:48;5.97;;;4.80;;
8556;SDS011;4316;53.840;10.762;2022-09-25T17:31:16;5.67;;;4.90;;
8556;SDS011;4316;53.840;10.762;2022-09-25T17:33:44;8.77;;;5.33;;
8556;SDS011;4316;53.840;10.762;2022-09-25T17:36:11;10.67;;;6.27;;
8556;SDS011;4316;53.840;10.762;2022-09-25T17:38:37;9.93;;;6.17;;
8556;SDS011;4316;53.840;10.762;2022-09-25T17:41:11;7.80;;;5.10;;
8556;SDS011;4316;53.840;10.762;2022-09-25T17:43:45;8.30;;;5.03;;
8556;SDS011;4316;53.840;10.762;2022-09-25T17:46:10;6.37;;;4.73;;
8556;SDS011;4316;53.840;10.762;2022-09-25T17:48:40;8.50;;;5.37;;
8556;SDS011;4316;53.840;10.762;2022-09-25T17:51:11;7.87;;;5.47;;
8556;SDS011;4316;53.840;10.762;2022-09-25T17:53:40;5.20;;;4.70;;
8556;SDS011;4316;53.840;10.762;2022-09-25T17:56:07;7.27;;;4.27;;
8556;SDS011;4316;53.840;10.762;2022-09-25T17:58:34;6.60;;;5.27;;
8556;SDS011;4316;53.840;10.762;2022-09-25T18:01:00;6.33;;;4.77;;